sensor_id;sensor_type;location;lat;lon;timestamp;temperature;humidity
29237;DHT22;16266;50.866;4.398;2022-11-02T00:00:28;13.30;99.90
29237;DHT22;16266;50.866;4.398;2022-11-02T00:02:54;13.30;99.90
29237;DHT22;16266;50.866;4.398;2022-11-02T00:05:20;13.30;99.90
29237;DHT22;16266;50.866;4.398;2022-11-02T00:07:50;13.30;99.90
29237;DHT22;16266;50.866;4.398;2022-11-02T00:10:16;13.30;99.90
29237;DHT22;16266;50.866;4.398;2022-11-02T00:12:41;13.30;99.90
29237;DHT22;16266;50.866;4.398;2022-11-02T00:15:07;13.20;99.90
29237;DHT22;16266;50.866;4.398;2022-11-02T00:17:33;13.20;99.90
29237;DHT22;16266;50.866;4.398;2022-11-02T00:20:00;13.20;99.90
29237;DHT22;16266;50.866;4.398;2022-11-02T00:22:26;13.10;99.90
29237;DHT22;16266;50.866;4.398;2022-11-02T00:24:52;13.10;99.90
29237;DHT22;16266;50.866;4.398;2022-11-02T00:27:18;13.10;99.90
29237;DHT22;16266;50.866;4.398;2022-11-02T00:29:43;13.00;99.90
29237;DHT22;16266;50.866;4.398;2022-11-02T00:32:09;13.00;99.90
29237;DHT22;16266;50.866;4.398;2022-11-02T00:34:35;13.00;99.90
29237;DHT22;16266;50.866;4.398;2022-11-02T00:37:00;13.00;99.90
29237;DHT22;16266;50.866;4.398;2022-11-02T00:39:26;13.00;99.90
29237;DHT22;16266;50.866;4.398;2022-11-02T00:41:51;13.00;99.90
29237;DHT22;16266;50.866;4.398;2022-11-02T00:44:17;13.10;99.90
29237;DHT22;16266;50.866;4.398;2022-11-02T00:46:43;13.10;99.90
29237;DHT22;16266;50.866;4.398;2022-11-02T00:49:08;13.10;99.90
29237;DHT22;16266;50.866;4.398;2022-11-02T00:51:34;13.10;99.90
29237;DHT22;16266;50.866;4.398;2022-11-02T00:54:00;13.00;99.90
29237;DHT22;16266;50.866;4.398;2022-11-02T00:56:25;13.00;99.90
29237;DHT22;16266;50.866;4.398;2022-11-02T00:58:51;13.10;99.90
29237;DHT22;16266;50.866;4.398;2022-11-02T01:01:17;12.90;99.90
29237;DHT22;16266;50.866;4.398;2022-11-02T01:03:42;12.90;99.90
29237;DHT22;16266;50.866;4.398;2022-11-02T01:06:10;12.90;99.90
29237;DHT22;16266;50.866;4.398;2022-11-02T01:08:36;12.90;99.90
29237;DHT22;16266;50.866;4.398;2022-11-02T01:11:31;12.80;99.90
29237;DHT22;16266;50.866;4.398;2022-11-02T01:13:57;12.80;99.90
29237;DHT22;16266;50.866;4.398;2022-11-02T01:16:23;12.70;99.90
29237;DHT22;16266;50.866;4.398;2022-11-02T01:18:53;12.70;99.90
29237;DHT22;16266;50.866;4.398;2022-11-02T01:21:20;12.60;99.90
29237;DHT22;16266;50.866;4.398;2022-11-02T01:23:46;12.70;99.90
29237;DHT22;16266;50.866;4.398;2022-11-02T01:26:12;12.70;99.90
29237;DHT22;16266;50.866;4.398;2022-11-02T01:28:39;12.70;99.90
29237;DHT22;16266;50.866;4.398;2022-11-02T01:31:06;12.70;99.90
29237;DHT22;16266;50.866;4.398;2022-11-02T01:33:33;12.70;99.90
29237;DHT22;16266;50.866;4.398;2022-11-02T01:36:02;12.70;99.90
29237;DHT22;16266;50.866;4.398;2022-11-02T01:38:27;12.70;99.90
29237;DHT22;16266;50.866;4.398;2022-11-02T01:40:53;12.60;99.90
29237;DHT22;16266;50.866;4.398;2022-11-02T01:45:44;12.50;99.90
29237;DHT22;16266;50.866;4.398;2022-11-02T01:48:10;12.50;99.90
29237;DHT22;16266;50.866;4.398;2022-11-02T01:50:36;12.50;99.90
29237;DHT22;16266;50.866;4.398;2022-11-02T01:53:02;12.50;99.90
29237;DHT22;16266;50.866;4.398;2022-11-02T01:55:30;12.60;99.90
29237;DHT22;16266;50.866;4.398;2022-11-02T01:58:09;12.60;99.90
29237;DHT22;16266;50.866;4.398;2022-11-02T02:00:36;12.60;99.90
29237;DHT22;16266;50.866;4.398;2022-11-02T02:03:04;12.60;99.90
29237;DHT22;16266;50.866;4.398;2022-11-02T02:05:33;12.70;99.90
29237;DHT22;16266;50.866;4.398;2022-11-02T02:08:01;12.90;99.90
29237;DHT22;16266;50.866;4.398;2022-11-02T02:10:27;12.90;99.90
29237;DHT22;16266;50.866;4.398;2022-11-02T02:12:53;12.90;99.90
29237;DHT22;16266;50.866;4.398;2022-11-02T02:15:24;12.90;99.90
29237;DHT22;16266;50.866;4.398;2022-11-02T02:18:01;12.90;99.90
29237;DHT22;16266;50.866;4.398;2022-11-02T02:26:54;13.10;99.90
29237;DHT22;16266;50.866;4.398;2022-11-02T02:30:00;13.00;99.90
29237;DHT22;16266;50.866;4.398;2022-11-02T02:35:33;12.90;99.90
29237;DHT22;16266;50.866;4.398;2022-11-02T02:38:01;12.80;99.90
29237;DHT22;16266;50.866;4.398;2022-11-02T02:40:44;12.80;99.90
29237;DHT22;16266;50.866;4.398;2022-11-02T02:43:20;12.70;99.90
29237;DHT22;16266;50.866;4.398;2022-11-02T02:46:20;12.70;99.90
29237;DHT22;16266;50.866;4.398;2022-11-02T02:48:48;12.70;99.90
29237;DHT22;16266;50.866;4.398;2022-11-02T02:51:21;12.70;99.90
29237;DHT22;16266;50.866;4.398;2022-11-02T02:53:53;12.60;99.90
29237;DHT22;16266;50.866;4.398;2022-11-02T02:56:24;12.70;99.90
29237;DHT22;16266;50.866;4.398;2022-11-02T02:59:05;12.70;99.90
29237;DHT22;16266;50.866;4.398;2022-11-02T03:01:34;12.70;99.90
29237;DHT22;16266;50.866;4.398;2022-11-02T03:04:04;12.70;99.90
29237;DHT22;16266;50.866;4.398;2022-11-02T03:06:32;12.70;99.90
29237;DHT22;16266;50.866;4.398;2022-11-02T03:09:08;12.70;99.90
29237;DHT22;16266;50.866;4.398;2022-11-02T03:11:50;12.70;99.90
29237;DHT22;16266;50.866;4.398;2022-11-02T03:14:41;12.60;99.90
29237;DHT22;16266;50.866;4.398;2022-11-02T03:17:12;12.70;99.90
29237;DHT22;16266;50.866;4.398;2022-11-02T03:19:56;12.70;99.90
29237;DHT22;16266;50.866;4.398;2022-11-02T03:25:23;12.70;99.90
29237;DHT22;16266;50.866;4.398;2022-11-02T03:27:56;12.70;99.90
29237;DHT22;16266;50.866;4.398;2022-11-02T03:30:24;12.60;99.90
29237;DHT22;16266;50.866;4.398;2022-11-02T03:36:03;12.60;99.90
29237;DHT22;16266;50.866;4.398;2022-11-02T03:41:00;12.70;99.90
29237;DHT22;16266;50.866;4.398;2022-11-02T03:43:27;12.70;99.90
29237;DHT22;16266;50.866;4.398;2022-11-02T03:45:56;12.60;99.90
29237;DHT22;16266;50.866;4.398;2022-11-02T03:48:28;12.60;99.90
29237;DHT22;16266;50.866;4.398;2022-11-02T03:50:57;12.60;99.90
29237;DHT22;16266;50.866;4.398;2022-11-02T03:55:55;12.40;99.90
29237;DHT22;16266;50.866;4.398;2022-11-02T03:58:24;12.40;99.90
29237;DHT22;16266;50.866;4.398;2022-11-02T04:00:53;12.30;99.90
29237;DHT22;16266;50.866;4.398;2022-11-02T04:03:22;12.20;99.90
29237;DHT22;16266;50.866;4.398;2022-11-02T04:05:48;12.20;99.90
29237;DHT22;16266;50.866;4.398;2022-11-02T04:08:18;12.10;99.90
29237;DHT22;16266;50.866;4.398;2022-11-02T04:10:46;12.10;99.90
29237;DHT22;16266;50.866;4.398;2022-11-02T04:13:31;12.10;99.90
29237;DHT22;16266;50.866;4.398;2022-11-02T04:16:16;12.20;99.90
29237;DHT22;16266;50.866;4.398;2022-11-02T04:18:42;12.20;99.90
29237;DHT22;16266;50.866;4.398;2022-11-02T04:21:26;12.20;99.90
29237;DHT22;16266;50.866;4.398;2022-11-02T04:23:52;12.10;99.90
29237;DHT22;16266;50.866;4.398;2022-11-02T04:26:36;12.10;99.90
29237;DHT22;16266;50.866;4.398;2022-11-02T04:29:02;12.00;99.90
29237;DHT22;16266;50.866;4.398;2022-11-02T04:31:28;11.90;99.90
29237;DHT22;16266;50.866;4.398;2022-11-02T04:33:54;11.90;99.90
29237;DHT22;16266;50.866;4.398;2022-11-02T04:36:20;12.00;99.90
29237;DHT22;16266;50.866;4.398;2022-11-02T04:38:45;12.00;99.90
29237;DHT22;16266;50.866;4.398;2022-11-02T04:41:16;12.10;99.90
29237;DHT22;16266;50.866;4.398;2022-11-02T04:44:00;12.00;99.90
29237;DHT22;16266;50.866;4.398;2022-11-02T04:46:28;11.90;99.90
29237;DHT22;16266;50.866;4.398;2022-11-02T04:48:54;11.90;99.90
29237;DHT22;16266;50.866;4.398;2022-11-02T04:51:21;11.80;99.90
29237;DHT22;16266;50.866;4.398;2022-11-02T04:53:47;11.80;99.90
29237;DHT22;16266;50.866;4.398;2022-11-02T04:56:13;11.70;99.90
29237;DHT22;16266;50.866;4.398;2022-11-02T04:58:39;11.70;99.90
29237;DHT22;16266;50.866;4.398;2022-11-02T05:01:12;11.70;99.90
29237;DHT22;16266;50.866;4.398;2022-11-02T05:03:38;11.60;99.90
29237;DHT22;16266;50.866;4.398;2022-11-02T05:06:05;11.50;99.90
29237;DHT22;16266;50.866;4.398;2022-11-02T05:08:31;11.50;99.90
29237;DHT22;16266;50.866;4.398;2022-11-02T05:10:58;11.50;99.90
29237;DHT22;16266;50.866;4.398;2022-11-02T05:13:24;11.50;99.90
29237;DHT22;16266;50.866;4.398;2022-11-02T05:15:54;11.40;99.90
29237;DHT22;16266;50.866;4.398;2022-11-02T05:18:19;11.30;99.90
29237;DHT22;16266;50.866;4.398;2022-11-02T05:20:52;11.30;99.90
29237;DHT22;16266;50.866;4.398;2022-11-02T05:23:20;11.40;99.90
29237;DHT22;16266;50.866;4.398;2022-11-02T05:28:19;11.30;99.90
29237;DHT22;16266;50.866;4.398;2022-11-02T05:30:45;11.30;99.90
29237;DHT22;16266;50.866;4.398;2022-11-02T05:33:10;11.30;99.90
29237;DHT22;16266;50.866;4.398;2022-11-02T05:35:36;11.30;99.90
29237;DHT22;16266;50.866;4.398;2022-11-02T05:38:01;11.30;99.90
29237;DHT22;16266;50.866;4.398;2022-11-02T05:40:28;11.30;99.90
29237;DHT22;16266;50.866;4.398;2022-11-02T05:43:00;11.30;99.90
29237;DHT22;16266;50.866;4.398;2022-11-02T05:45:27;11.20;99.90
29237;DHT22;16266;50.866;4.398;2022-11-02T05:47:54;11.10;99.90
29237;DHT22;16266;50.866;4.398;2022-11-02T05:50:20;11.10;99.90
29237;DHT22;16266;50.866;4.398;2022-11-02T05:52:46;11.10;99.90
29237;DHT22;16266;50.866;4.398;2022-11-02T05:55:12;11.10;99.90
29237;DHT22;16266;50.866;4.398;2022-11-02T05:57:37;11.10;99.90
29237;DHT22;16266;50.866;4.398;2022-11-02T06:00:05;11.10;99.90
29237;DHT22;16266;50.866;4.398;2022-11-02T06:02:32;11.10;99.90
29237;DHT22;16266;50.866;4.398;2022-11-02T06:04:58;11.10;99.90
29237;DHT22;16266;50.866;4.398;2022-11-02T06:07:24;11.10;99.90
29237;DHT22;16266;50.866;4.398;2022-11-02T06:09:50;11.00;99.90
29237;DHT22;16266;50.866;4.398;2022-11-02T06:12:16;11.00;99.90
29237;DHT22;16266;50.866;4.398;2022-11-02T06:14:41;11.00;99.90
29237;DHT22;16266;50.866;4.398;2022-11-02T06:17:07;10.90;99.90
29237;DHT22;16266;50.866;4.398;2022-11-02T06:19:33;10.90;99.90
29237;DHT22;16266;50.866;4.398;2022-11-02T06:21:58;11.00;99.90
29237;DHT22;16266;50.866;4.398;2022-11-02T06:24:24;10.90;99.90
29237;DHT22;16266;50.866;4.398;2022-11-02T06:26:49;10.90;99.90
29237;DHT22;16266;50.866;4.398;2022-11-02T06:29:15;10.90;99.90
29237;DHT22;16266;50.866;4.398;2022-11-02T06:31:41;10.90;99.90
29237;DHT22;16266;50.866;4.398;2022-11-02T06:34:06;10.90;99.90
29237;DHT22;16266;50.866;4.398;2022-11-02T06:36:32;10.80;99.90
29237;DHT22;16266;50.866;4.398;2022-11-02T06:38:58;10.90;99.90
29237;DHT22;16266;50.866;4.398;2022-11-02T06:41:23;10.80;99.90
29237;DHT22;16266;50.866;4.398;2022-11-02T06:43:49;10.80;99.90
29237;DHT22;16266;50.866;4.398;2022-11-02T06:46:14;10.80;99.90
29237;DHT22;16266;50.866;4.398;2022-11-02T06:48:40;10.80;99.90
29237;DHT22;16266;50.866;4.398;2022-11-02T06:51:06;10.80;99.90
29237;DHT22;16266;50.866;4.398;2022-11-02T06:53:32;10.80;99.90
29237;DHT22;16266;50.866;4.398;2022-11-02T06:55:59;10.80;99.90
29237;DHT22;16266;50.866;4.398;2022-11-02T06:58:25;10.90;99.90
29237;DHT22;16266;50.866;4.398;2022-11-02T07:00:57;10.90;99.90
29237;DHT22;16266;50.866;4.398;2022-11-02T07:03:23;11.00;99.90
29237;DHT22;16266;50.866;4.398;2022-11-02T07:05:50;11.00;99.90
29237;DHT22;16266;50.866;4.398;2022-11-02T07:08:16;11.10;99.90
29237;DHT22;16266;50.866;4.398;2022-11-02T07:10:42;11.10;99.90
29237;DHT22;16266;50.866;4.398;2022-11-02T07:13:07;11.10;99.90
29237;DHT22;16266;50.866;4.398;2022-11-02T07:15:33;11.20;99.90
29237;DHT22;16266;50.866;4.398;2022-11-02T07:17:58;11.20;99.90
29237;DHT22;16266;50.866;4.398;2022-11-02T07:20:24;11.30;99.90
29237;DHT22;16266;50.866;4.398;2022-11-02T07:22:58;11.60;99.90
29237;DHT22;16266;50.866;4.398;2022-11-02T07:25:25;11.90;99.90
29237;DHT22;16266;50.866;4.398;2022-11-02T07:27:52;12.10;99.90
29237;DHT22;16266;50.866;4.398;2022-11-02T07:30:18;12.40;99.90
29237;DHT22;16266;50.866;4.398;2022-11-02T07:32:46;12.80;99.90
29237;DHT22;16266;50.866;4.398;2022-11-02T07:35:14;13.10;99.90
29237;DHT22;16266;50.866;4.398;2022-11-02T07:37:40;13.30;99.90
29237;DHT22;16266;50.866;4.398;2022-11-02T07:40:07;13.50;99.90
29237;DHT22;16266;50.866;4.398;2022-11-02T07:42:34;13.80;99.90
29237;DHT22;16266;50.866;4.398;2022-11-02T07:45:00;14.10;99.90
29237;DHT22;16266;50.866;4.398;2022-11-02T07:47:26;14.30;99.90
29237;DHT22;16266;50.866;4.398;2022-11-02T07:49:51;14.50;99.90
29237;DHT22;16266;50.866;4.398;2022-11-02T07:52:17;14.70;99.90
29237;DHT22;16266;50.866;4.398;2022-11-02T07:54:43;15.00;99.90
29237;DHT22;16266;50.866;4.398;2022-11-02T07:57:08;15.00;99.90
29237;DHT22;16266;50.866;4.398;2022-11-02T07:59:34;15.20;99.90
29237;DHT22;16266;50.866;4.398;2022-11-02T08:02:01;15.00;99.90
29237;DHT22;16266;50.866;4.398;2022-11-02T08:04:27;15.10;99.90
29237;DHT22;16266;50.866;4.398;2022-11-02T08:06:53;15.20;99.90
29237;DHT22;16266;50.866;4.398;2022-11-02T08:09:18;15.60;99.90
29237;DHT22;16266;50.866;4.398;2022-11-02T08:11:44;15.50;99.90
29237;DHT22;16266;50.866;4.398;2022-11-02T08:14:10;15.20;99.90
29237;DHT22;16266;50.866;4.398;2022-11-02T08:16:35;14.70;99.90
29237;DHT22;16266;50.866;4.398;2022-11-02T08:19:01;14.50;99.90
29237;DHT22;16266;50.866;4.398;2022-11-02T08:21:27;14.90;99.90
29237;DHT22;16266;50.866;4.398;2022-11-02T08:23:52;15.40;99.90
29237;DHT22;16266;50.866;4.398;2022-11-02T08:26:20;15.80;99.90
29237;DHT22;16266;50.866;4.398;2022-11-02T08:28:45;16.40;99.90
29237;DHT22;16266;50.866;4.398;2022-11-02T08:31:16;16.50;99.90
29237;DHT22;16266;50.866;4.398;2022-11-02T08:33:42;16.90;99.90
29237;DHT22;16266;50.866;4.398;2022-11-02T08:36:08;17.10;99.90
29237;DHT22;16266;50.866;4.398;2022-11-02T08:38:35;17.70;99.90
29237;DHT22;16266;50.866;4.398;2022-11-02T08:41:01;17.40;99.90
29237;DHT22;16266;50.866;4.398;2022-11-02T08:43:26;16.60;99.90
29237;DHT22;16266;50.866;4.398;2022-11-02T08:45:57;16.10;99.90
29237;DHT22;16266;50.866;4.398;2022-11-02T08:48:23;15.80;99.90
29237;DHT22;16266;50.866;4.398;2022-11-02T08:50:49;16.10;99.90
29237;DHT22;16266;50.866;4.398;2022-11-02T08:53:15;16.40;99.90
29237;DHT22;16266;50.866;4.398;2022-11-02T08:55:41;16.10;99.90
29237;DHT22;16266;50.866;4.398;2022-11-02T08:58:06;16.00;99.90
29237;DHT22;16266;50.866;4.398;2022-11-02T09:00:33;16.90;99.90
29237;DHT22;16266;50.866;4.398;2022-11-02T09:03:07;17.50;99.90
29237;DHT22;16266;50.866;4.398;2022-11-02T09:05:36;17.60;99.90
29237;DHT22;16266;50.866;4.398;2022-11-02T09:08:05;18.10;99.90
29237;DHT22;16266;50.866;4.398;2022-11-02T09:10:33;18.70;99.90
29237;DHT22;16266;50.866;4.398;2022-11-02T09:13:00;18.70;99.90
29237;DHT22;16266;50.866;4.398;2022-11-02T09:15:26;18.70;99.90
29237;DHT22;16266;50.866;4.398;2022-11-02T09:17:52;18.90;99.90
29237;DHT22;16266;50.866;4.398;2022-11-02T09:20:19;19.70;99.90
29237;DHT22;16266;50.866;4.398;2022-11-02T09:22:45;20.30;99.90
29237;DHT22;16266;50.866;4.398;2022-11-02T09:25:12;20.70;99.90
29237;DHT22;16266;50.866;4.398;2022-11-02T09:27:38;20.70;99.90
29237;DHT22;16266;50.866;4.398;2022-11-02T09:30:04;20.10;99.90
29237;DHT22;16266;50.866;4.398;2022-11-02T09:32:30;20.00;99.90
29237;DHT22;16266;50.866;4.398;2022-11-02T09:35:05;19.80;99.90
29237;DHT22;16266;50.866;4.398;2022-11-02T09:37:31;20.20;99.90
29237;DHT22;16266;50.866;4.398;2022-11-02T09:39:56;21.10;99.90
29237;DHT22;16266;50.866;4.398;2022-11-02T09:45:16;21.40;99.90
29237;DHT22;16266;50.866;4.398;2022-11-02T09:47:59;21.70;99.90
29237;DHT22;16266;50.866;4.398;2022-11-02T09:50:33;22.00;99.90
29237;DHT22;16266;50.866;4.398;2022-11-02T09:53:03;21.60;99.90
29237;DHT22;16266;50.866;4.398;2022-11-02T09:55:34;21.70;99.90
29237;DHT22;16266;50.866;4.398;2022-11-02T09:58:17;22.10;99.90
29237;DHT22;16266;50.866;4.398;2022-11-02T10:00:47;21.70;99.90
29237;DHT22;16266;50.866;4.398;2022-11-02T10:03:27;21.60;99.90
29237;DHT22;16266;50.866;4.398;2022-11-02T10:05:59;21.00;99.90
29237;DHT22;16266;50.866;4.398;2022-11-02T10:08:38;21.10;99.90
29237;DHT22;16266;50.866;4.398;2022-11-02T10:11:21;21.60;99.90
29237;DHT22;16266;50.866;4.398;2022-11-02T10:14:07;21.10;99.90
29237;DHT22;16266;50.866;4.398;2022-11-02T10:16:38;21.20;99.90
29237;DHT22;16266;50.866;4.398;2022-11-02T10:19:12;21.10;99.90
29237;DHT22;16266;50.866;4.398;2022-11-02T10:21:38;21.90;99.90
29237;DHT22;16266;50.866;4.398;2022-11-02T10:24:10;22.40;99.90
29237;DHT22;16266;50.866;4.398;2022-11-02T10:26:40;22.40;99.90
29237;DHT22;16266;50.866;4.398;2022-11-02T10:29:18;22.80;99.90
29237;DHT22;16266;50.866;4.398;2022-11-02T10:31:46;22.90;99.90
29237;DHT22;16266;50.866;4.398;2022-11-02T10:39:19;21.10;99.90
29237;DHT22;16266;50.866;4.398;2022-11-02T10:42:03;20.70;99.90
29237;DHT22;16266;50.866;4.398;2022-11-02T10:47:17;20.60;99.90
29237;DHT22;16266;50.866;4.398;2022-11-02T10:49:57;20.90;99.90
29237;DHT22;16266;50.866;4.398;2022-11-02T10:52:32;20.80;99.90
29237;DHT22;16266;50.866;4.398;2022-11-02T10:54:59;20.90;99.90
29237;DHT22;16266;50.866;4.398;2022-11-02T10:57:26;20.50;99.90
29237;DHT22;16266;50.866;4.398;2022-11-02T11:00:28;19.80;99.90
29237;DHT22;16266;50.866;4.398;2022-11-02T11:03:21;19.70;99.90
29237;DHT22;16266;50.866;4.398;2022-11-02T11:08:38;20.30;99.90
29237;DHT22;16266;50.866;4.398;2022-11-02T11:11:18;20.40;99.90
29237;DHT22;16266;50.866;4.398;2022-11-02T11:14:02;21.20;99.90
29237;DHT22;16266;50.866;4.398;2022-11-02T11:16:35;21.10;99.90
29237;DHT22;16266;50.866;4.398;2022-11-02T11:19:03;20.80;99.90
29237;DHT22;16266;50.866;4.398;2022-11-02T11:21:40;21.10;99.90
29237;DHT22;16266;50.866;4.398;2022-11-02T11:24:20;21.20;99.90
29237;DHT22;16266;50.866;4.398;2022-11-02T11:29:33;22.60;99.90
29237;DHT22;16266;50.866;4.398;2022-11-02T11:32:00;23.00;99.90
29237;DHT22;16266;50.866;4.398;2022-11-02T11:34:32;23.40;99.90
29237;DHT22;16266;50.866;4.398;2022-11-02T11:37:14;23.10;99.90
29237;DHT22;16266;50.866;4.398;2022-11-02T11:39:43;22.60;99.90
29237;DHT22;16266;50.866;4.398;2022-11-02T11:42:17;21.70;99.90
29237;DHT22;16266;50.866;4.398;2022-11-02T11:45:07;21.30;99.90
29237;DHT22;16266;50.866;4.398;2022-11-02T11:47:42;21.10;99.90
29237;DHT22;16266;50.866;4.398;2022-11-02T11:50:18;20.50;99.90
29237;DHT22;16266;50.866;4.398;2022-11-02T11:55:49;20.30;99.90
29237;DHT22;16266;50.866;4.398;2022-11-02T11:58:26;21.20;99.90
29237;DHT22;16266;50.866;4.398;2022-11-02T12:01:03;21.20;99.90
29237;DHT22;16266;50.866;4.398;2022-11-02T12:03:30;21.50;99.90
29237;DHT22;16266;50.866;4.398;2022-11-02T12:09:34;20.50;99.90
29237;DHT22;16266;50.866;4.398;2022-11-02T12:23:00;20.60;99.90
29237;DHT22;16266;50.866;4.398;2022-11-02T12:31:35;19.60;99.90
29237;DHT22;16266;50.866;4.398;2022-11-02T12:42:26;18.10;99.90
29237;DHT22;16266;50.866;4.398;2022-11-02T12:45:48;17.80;99.90
29237;DHT22;16266;50.866;4.398;2022-11-02T12:48:06;17.70;99.90
29237;DHT22;16266;50.866;4.398;2022-11-02T12:55:59;17.40;99.90
29237;DHT22;16266;50.866;4.398;2022-11-02T12:58:28;17.30;99.90
29237;DHT22;16266;50.866;4.398;2022-11-02T13:01:21;17.20;99.90
29237;DHT22;16266;50.866;4.398;2022-11-02T13:06:34;17.10;99.90
29237;DHT22;16266;50.866;4.398;2022-11-02T13:09:06;16.80;99.90
29237;DHT22;16266;50.866;4.398;2022-11-02T13:11:44;16.80;99.90
29237;DHT22;16266;50.866;4.398;2022-11-02T13:14:14;17.00;99.90
29237;DHT22;16266;50.866;4.398;2022-11-02T13:16:47;17.10;99.90
29237;DHT22;16266;50.866;4.398;2022-11-02T13:19:20;17.10;99.90
29237;DHT22;16266;50.866;4.398;2022-11-02T13:21:52;17.10;99.90
29237;DHT22;16266;50.866;4.398;2022-11-02T13:24:23;17.10;99.90
29237;DHT22;16266;50.866;4.398;2022-11-02T13:26:52;16.90;99.90
29237;DHT22;16266;50.866;4.398;2022-11-02T13:34:47;16.70;99.90
29237;DHT22;16266;50.866;4.398;2022-11-02T13:39:52;16.40;99.90
29237;DHT22;16266;50.866;4.398;2022-11-02T13:50:21;16.30;99.90
29237;DHT22;16266;50.866;4.398;2022-11-02T13:52:54;16.30;99.90
29237;DHT22;16266;50.866;4.398;2022-11-02T13:55:23;16.30;99.90
29237;DHT22;16266;50.866;4.398;2022-11-02T13:57:56;16.10;99.90
29237;DHT22;16266;50.866;4.398;2022-11-02T14:00:30;16.10;99.90
29237;DHT22;16266;50.866;4.398;2022-11-02T14:03:10;16.00;99.90
29237;DHT22;16266;50.866;4.398;2022-11-02T14:05:46;16.10;99.90
29237;DHT22;16266;50.866;4.398;2022-11-02T14:08:21;16.10;99.90
29237;DHT22;16266;50.866;4.398;2022-11-02T14:11:05;16.00;99.90
29237;DHT22;16266;50.866;4.398;2022-11-02T14:16:58;15.80;99.90
29237;DHT22;16266;50.866;4.398;2022-11-02T14:19:50;15.70;99.90
29237;DHT22;16266;50.866;4.398;2022-11-02T14:22:18;15.60;99.90
29237;DHT22;16266;50.866;4.398;2022-11-02T14:32:38;15.50;99.90
29237;DHT22;16266;50.866;4.398;2022-11-02T14:35:26;15.40;99.90
29237;DHT22;16266;50.866;4.398;2022-11-02T14:38:13;15.40;99.90
29237;DHT22;16266;50.866;4.398;2022-11-02T14:40:59;15.50;99.90
29237;DHT22;16266;50.866;4.398;2022-11-02T14:43:39;15.50;99.90
29237;DHT22;16266;50.866;4.398;2022-11-02T14:46:25;15.40;99.90
29237;DHT22;16266;50.866;4.398;2022-11-02T14:48:58;15.30;99.90
29237;DHT22;16266;50.866;4.398;2022-11-02T14:51:30;15.30;99.90
29237;DHT22;16266;50.866;4.398;2022-11-02T14:54:17;15.40;99.90
29237;DHT22;16266;50.866;4.398;2022-11-02T14:59:37;15.30;99.90
29237;DHT22;16266;50.866;4.398;2022-11-02T15:04:47;15.30;99.90
29237;DHT22;16266;50.866;4.398;2022-11-02T15:07:18;15.30;99.90
29237;DHT22;16266;50.866;4.398;2022-11-02T15:10:03;15.30;99.90
29237;DHT22;16266;50.866;4.398;2022-11-02T15:12:33;15.30;99.90
29237;DHT22;16266;50.866;4.398;2022-11-02T15:15:23;15.30;99.90
29237;DHT22;16266;50.866;4.398;2022-11-02T15:17:51;15.20;99.90
29237;DHT22;16266;50.866;4.398;2022-11-02T15:20:32;15.20;99.90
29237;DHT22;16266;50.866;4.398;2022-11-02T15:25:40;15.10;99.90
29237;DHT22;16266;50.866;4.398;2022-11-02T15:28:18;15.00;99.90
29237;DHT22;16266;50.866;4.398;2022-11-02T15:31:06;14.90;99.90
29237;DHT22;16266;50.866;4.398;2022-11-02T15:33:54;14.90;99.90
29237;DHT22;16266;50.866;4.398;2022-11-02T15:36:37;14.70;99.90
29237;DHT22;16266;50.866;4.398;2022-11-02T15:39:05;14.60;99.90
29237;DHT22;16266;50.866;4.398;2022-11-02T15:41:44;14.60;99.90
29237;DHT22;16266;50.866;4.398;2022-11-02T15:55:19;14.20;99.90
29237;DHT22;16266;50.866;4.398;2022-11-02T16:00:24;14.10;99.90
29237;DHT22;16266;50.866;4.398;2022-11-02T16:05:26;13.90;99.90
29237;DHT22;16266;50.866;4.398;2022-11-02T16:07:55;13.80;99.90
29237;DHT22;16266;50.866;4.398;2022-11-02T16:10:24;13.70;99.90
29237;DHT22;16266;50.866;4.398;2022-11-02T16:12:57;13.70;99.90
29237;DHT22;16266;50.866;4.398;2022-11-02T16:15:24;13.70;99.90
29237;DHT22;16266;50.866;4.398;2022-11-02T16:17:50;13.60;99.90
29237;DHT22;16266;50.866;4.398;2022-11-02T16:20:21;13.40;99.90
29237;DHT22;16266;50.866;4.398;2022-11-02T16:25:42;13.40;99.90
29237;DHT22;16266;50.866;4.398;2022-11-02T16:28:11;13.40;99.90
29237;DHT22;16266;50.866;4.398;2022-11-02T16:30:38;13.30;99.90
29237;DHT22;16266;50.866;4.398;2022-11-02T16:33:04;13.20;99.90
29237;DHT22;16266;50.866;4.398;2022-11-02T16:35:31;13.30;99.90
29237;DHT22;16266;50.866;4.398;2022-11-02T16:37:57;13.20;99.90
29237;DHT22;16266;50.866;4.398;2022-11-02T16:40:23;13.20;99.90
29237;DHT22;16266;50.866;4.398;2022-11-02T16:42:51;13.20;99.90
29237;DHT22;16266;50.866;4.398;2022-11-02T16:45:33;13.10;99.90
29237;DHT22;16266;50.866;4.398;2022-11-02T16:48:00;13.10;99.90
29237;DHT22;16266;50.866;4.398;2022-11-02T16:50:26;13.10;99.90
29237;DHT22;16266;50.866;4.398;2022-11-02T16:52:58;13.10;99.90
29237;DHT22;16266;50.866;4.398;2022-11-02T16:55:40;13.00;99.90
29237;DHT22;16266;50.866;4.398;2022-11-02T16:58:15;13.00;99.90
29237;DHT22;16266;50.866;4.398;2022-11-02T17:01:02;12.90;99.90
29237;DHT22;16266;50.866;4.398;2022-11-02T17:03:31;13.00;99.90
29237;DHT22;16266;50.866;4.398;2022-11-02T17:05:59;12.90;99.90
29237;DHT22;16266;50.866;4.398;2022-11-02T17:08:28;12.90;99.90
29237;DHT22;16266;50.866;4.398;2022-11-02T17:10:57;12.80;99.90
29237;DHT22;16266;50.866;4.398;2022-11-02T17:13:23;12.70;99.90
29237;DHT22;16266;50.866;4.398;2022-11-02T17:15:52;12.70;99.90
29237;DHT22;16266;50.866;4.398;2022-11-02T17:20:47;12.70;99.90
29237;DHT22;16266;50.866;4.398;2022-11-02T17:23:34;12.80;99.90
29237;DHT22;16266;50.866;4.398;2022-11-02T17:29:28;12.80;99.90
29237;DHT22;16266;50.866;4.398;2022-11-02T17:31:52;12.90;99.90
29237;DHT22;16266;50.866;4.398;2022-11-02T17:34:21;12.90;99.90
29237;DHT22;16266;50.866;4.398;2022-11-02T17:36:48;13.00;99.90
29237;DHT22;16266;50.866;4.398;2022-11-02T17:39:16;12.90;99.90
29237;DHT22;16266;50.866;4.398;2022-11-02T17:41:43;13.00;99.90
29237;DHT22;16266;50.866;4.398;2022-11-02T17:44:28;13.00;99.90
29237;DHT22;16266;50.866;4.398;2022-11-02T17:46:54;13.00;99.90
29237;DHT22;16266;50.866;4.398;2022-11-02T17:49:20;13.00;99.90
29237;DHT22;16266;50.866;4.398;2022-11-02T17:51:46;13.10;99.90
29237;DHT22;16266;50.866;4.398;2022-11-02T17:54:12;13.10;99.90
29237;DHT22;16266;50.866;4.398;2022-11-02T17:56:38;13.10;99.90
29237;DHT22;16266;50.866;4.398;2022-11-02T17:59:04;13.00;99.90
29237;DHT22;16266;50.866;4.398;2022-11-02T18:01:30;13.00;99.90
29237;DHT22;16266;50.866;4.398;2022-11-02T18:03:55;13.10;99.90
29237;DHT22;16266;50.866;4.398;2022-11-02T18:06:21;13.10;99.90
29237;DHT22;16266;50.866;4.398;2022-11-02T18:08:47;13.10;99.90
29237;DHT22;16266;50.866;4.398;2022-11-02T18:11:31;13.10;99.90